Aeroporto :
LOGIN :

Iscrizione | Disclaimer

   EN    FR    IT 

 










Sommario :    VFR   VFR Marginale   IFR   IFR Intensivo   IFR Molto Intensivo
Visibilità : 
Base nubi : 
>= 8 km
>= 3000ft
5 / 8 km
1000 / 3000 ft
1500m / 5 km
500 / 1000 ft
800 / 1500m
200 / 500 ft
< 800m
< 200 ft
Simboli :   Temporali  Nebbia  Neve Forte  Precipitazioni Forti  Vento > 20 kt
SIGMETs :   Varie  Temporali  Ghiacco  Turbolenza  Onda orograficha  Ceneri Vulcaniche






- Altitudine del aeroporto : 1090 ft
- Codice IATA : CFE


LFLC - Clermont-Ferrand Auvergne

ULTIMO METAR :
  • 180500Z AUTO 23011KT 190V270 CAVOK 19/12 Q1012 NOSIG

METARs OBSOLETI :
  • 180430Z AUTO 19014KT 9999 2100 NSC 18/12 Q1011 NOSIG
  • 180400Z AUTO 19016KT CAVOK 18/12 Q1011 NOSIG
  • 180330Z AUTO VRB09KT CAVOK 18/12 Q1011 NOSIG
  • 180300Z AUTO VRB03KT CAVOK 18/12 Q1011 NOSIG
  • 180230Z AUTO VRB02KT CAVOK 18/13 Q1011 NOSIG
  • 180200Z AUTO 16005KT 120V210 CAVOK 17/13 Q1011 NOSIG
  • 180130Z AUTO 14005KT 110V220 CAVOK 17/13 Q1012 NOSIG
  • 180100Z AUTO 13004KT 100V160 CAVOK 17/14 Q1012 NOSIG
  • 180030Z AUTO 16006KT CAVOK 17/14 Q1013 NOSIG

TAF TAF LFLC
Valido dal 18 a 00 ore il 19 a 00 ore UTC


172300Z 1800/1824 18007KT CAVOK
BECMG 1810/1813 01007KT
ATIS : +33 4 73 62 74 38



MetMap, La meteo Aeronautica in un colpo d'occhio ! - Copyright ORBIFLY Dicembre 2007 - Disclaimer

ORBIFLY MET'MAP TEAM :

Programmazione e sviluppo : Alexandra Zaïnal
Concezione : Baudouin d'Aumeries
Supporto tecnico e logistico : Manuel Goepfert
Aiuto : Marc-Olivier Méhu
Aiuto per la traduzione : Arnaldo La Scala




FONTI E CREDITI :

   NOAA